sensor_id;sensor_type;location;lat;lon;timestamp;P1;durP1;ratioP1;P2;durP2;ratioP2
18804;SDS011;9530;48.930;9.526;2022-08-21T00:01:30;5.70;;;1.87;;
18804;SDS011;9530;48.930;9.526;2022-08-21T00:04:03;3.90;;;1.93;;
18804;SDS011;9530;48.930;9.526;2022-08-21T00:06:30;4.63;;;1.90;;
18804;SDS011;9530;48.930;9.526;2022-08-21T00:08:58;5.10;;;2.30;;
18804;SDS011;9530;48.930;9.526;2022-08-21T00:11:25;3.13;;;2.23;;
18804;SDS011;9530;48.930;9.526;2022-08-21T00:13:52;7.70;;;2.10;;
18804;SDS011;9530;48.930;9.526;2022-08-21T00:16:19;4.93;;;2.20;;
18804;SDS011;9530;48.930;9.526;2022-08-21T00:18:46;4.33;;;2.10;;
18804;SDS011;9530;48.930;9.526;2022-08-21T00:21:14;4.43;;;2.03;;
18804;SDS011;9530;48.930;9.526;2022-08-21T00:23:41;6.50;;;2.27;;
18804;SDS011;9530;48.930;9.526;2022-08-21T00:26:08;11.33;;;2.30;;
18804;SDS011;9530;48.930;9.526;2022-08-21T00:28:35;3.97;;;2.37;;
18804;SDS011;9530;48.930;9.526;2022-08-21T00:31:01;3.57;;;2.10;;
18804;SDS011;9530;48.930;9.526;2022-08-21T00:33:29;4.17;;;1.97;;
18804;SDS011;9530;48.930;9.526;2022-08-21T00:35:56;2.80;;;1.97;;
18804;SDS011;9530;48.930;9.526;2022-08-21T00:38:24;4.40;;;1.83;;
18804;SDS011;9530;48.930;9.526;2022-08-21T00:40:52;5.50;;;1.60;;
18804;SDS011;9530;48.930;9.526;2022-08-21T00:43:21;5.00;;;2.10;;
18804;SDS011;9530;48.930;9.526;2022-08-21T00:45:50;5.47;;;2.37;;
18804;SDS011;9530;48.930;9.526;2022-08-21T00:48:18;5.67;;;2.07;;
18804;SDS011;9530;48.930;9.526;2022-08-21T00:50:46;4.90;;;2.03;;
18804;SDS011;9530;48.930;9.526;2022-08-21T00:53:18;4.97;;;2.30;;
18804;SDS011;9530;48.930;9.526;2022-08-21T00:55:46;6.43;;;1.93;;
18804;SDS011;9530;48.930;9.526;2022-08-21T00:58:13;5.87;;;2.20;;
18804;SDS011;9530;48.930;9.526;2022-08-21T01:00:42;4.67;;;2.10;;
18804;SDS011;9530;48.930;9.526;2022-08-21T01:03:12;4.53;;;2.03;;
18804;SDS011;9530;48.930;9.526;2022-08-21T01:05:45;5.37;;;2.47;;
18804;SDS011;9530;48.930;9.526;2022-08-21T01:08:13;3.60;;;2.10;;
18804;SDS011;9530;48.930;9.526;2022-08-21T01:10:41;3.90;;;2.00;;
18804;SDS011;9530;48.930;9.526;2022-08-21T01:13:10;5.03;;;2.23;;
18804;SDS011;9530;48.930;9.526;2022-08-21T01:15:40;4.80;;;2.10;;
18804;SDS011;9530;48.930;9.526;2022-08-21T01:18:11;2.77;;;1.97;;
18804;SDS011;9530;48.930;9.526;2022-08-21T01:20:40;5.60;;;2.07;;
18804;SDS011;9530;48.930;9.526;2022-08-21T01:23:11;4.23;;;2.30;;
18804;SDS011;9530;48.930;9.526;2022-08-21T01:25:38;2.77;;;2.30;;
18804;SDS011;9530;48.930;9.526;2022-08-21T01:28:07;7.47;;;2.20;;
18804;SDS011;9530;48.930;9.526;2022-08-21T01:30:38;6.53;;;2.30;;
18804;SDS011;9530;48.930;9.526;2022-08-21T01:33:06;3.40;;;2.10;;
18804;SDS011;9530;48.930;9.526;2022-08-21T01:35:33;2.67;;;1.67;;
18804;SDS011;9530;48.930;9.526;2022-08-21T01:37:59;2.57;;;2.00;;
18804;SDS011;9530;48.930;9.526;2022-08-21T01:40:28;4.13;;;2.20;;
18804;SDS011;9530;48.930;9.526;2022-08-21T01:42:54;2.93;;;2.13;;
18804;SDS011;9530;48.930;9.526;2022-08-21T01:45:21;5.97;;;2.60;;
18804;SDS011;9530;48.930;9.526;2022-08-21T01:47:48;3.57;;;1.90;;
18804;SDS011;9530;48.930;9.526;2022-08-21T01:50:16;5.07;;;2.30;;
18804;SDS011;9530;48.930;9.526;2022-08-21T01:52:44;6.17;;;2.30;;
18804;SDS011;9530;48.930;9.526;2022-08-21T01:55:11;3.47;;;2.13;;
18804;SDS011;9530;48.930;9.526;2022-08-21T01:57:41;4.70;;;2.40;;
18804;SDS011;9530;48.930;9.526;2022-08-21T02:00:09;4.23;;;2.30;;
18804;SDS011;9530;48.930;9.526;2022-08-21T02:02:38;4.87;;;2.10;;
18804;SDS011;9530;48.930;9.526;2022-08-21T02:05:06;4.57;;;2.30;;
18804;SDS011;9530;48.930;9.526;2022-08-21T02:07:35;5.00;;;2.33;;
18804;SDS011;9530;48.930;9.526;2022-08-21T02:10:05;5.80;;;2.23;;
18804;SDS011;9530;48.930;9.526;2022-08-21T02:12:34;4.27;;;1.93;;
18804;SDS011;9530;48.930;9.526;2022-08-21T02:15:02;8.23;;;2.17;;
18804;SDS011;9530;48.930;9.526;2022-08-21T02:17:36;3.33;;;2.20;;
18804;SDS011;9530;48.930;9.526;2022-08-21T02:20:04;4.20;;;2.23;;
18804;SDS011;9530;48.930;9.526;2022-08-21T02:22:32;5.03;;;2.07;;
18804;SDS011;9530;48.930;9.526;2022-08-21T02:24:58;3.97;;;2.20;;
18804;SDS011;9530;48.930;9.526;2022-08-21T02:27:25;6.83;;;2.40;;
18804;SDS011;9530;48.930;9.526;2022-08-21T02:29:52;5.67;;;2.00;;
18804;SDS011;9530;48.930;9.526;2022-08-21T02:32:21;5.63;;;2.30;;
18804;SDS011;9530;48.930;9.526;2022-08-21T02:34:47;4.60;;;2.37;;
18804;SDS011;9530;48.930;9.526;2022-08-21T02:37:14;4.63;;;2.23;;
18804;SDS011;9530;48.930;9.526;2022-08-21T02:39:41;6.03;;;2.50;;
18804;SDS011;9530;48.930;9.526;2022-08-21T02:42:08;4.27;;;2.70;;
18804;SDS011;9530;48.930;9.526;2022-08-21T02:44:34;6.03;;;2.37;;
18804;SDS011;9530;48.930;9.526;2022-08-21T02:47:01;5.00;;;2.40;;
18804;SDS011;9530;48.930;9.526;2022-08-21T02:49:29;9.00;;;2.50;;
18804;SDS011;9530;48.930;9.526;2022-08-21T02:51:56;3.87;;;2.37;;
18804;SDS011;9530;48.930;9.526;2022-08-21T02:54:22;5.50;;;2.50;;
18804;SDS011;9530;48.930;9.526;2022-08-21T02:56:49;4.57;;;2.50;;
18804;SDS011;9530;48.930;9.526;2022-08-21T02:59:16;3.87;;;2.57;;
18804;SDS011;9530;48.930;9.526;2022-08-21T03:01:43;3.23;;;2.30;;
18804;SDS011;9530;48.930;9.526;2022-08-21T03:04:10;3.27;;;2.13;;
18804;SDS011;9530;48.930;9.526;2022-08-21T03:06:38;6.03;;;1.97;;
18804;SDS011;9530;48.930;9.526;2022-08-21T03:09:04;8.00;;;2.10;;
18804;SDS011;9530;48.930;9.526;2022-08-21T03:11:31;4.73;;;2.20;;
18804;SDS011;9530;48.930;9.526;2022-08-21T03:13:58;5.90;;;2.27;;
18804;SDS011;9530;48.930;9.526;2022-08-21T03:16:24;6.07;;;2.10;;
18804;SDS011;9530;48.930;9.526;2022-08-21T03:18:51;3.33;;;2.40;;
18804;SDS011;9530;48.930;9.526;2022-08-21T03:21:18;4.07;;;2.37;;
18804;SDS011;9530;48.930;9.526;2022-08-21T03:23:46;4.53;;;2.47;;
18804;SDS011;9530;48.930;9.526;2022-08-21T03:26:12;6.20;;;2.30;;
18804;SDS011;9530;48.930;9.526;2022-08-21T03:28:39;5.63;;;2.27;;
18804;SDS011;9530;48.930;9.526;2022-08-21T03:31:06;4.23;;;2.53;;
18804;SDS011;9530;48.930;9.526;2022-08-21T03:33:33;4.07;;;2.20;;
18804;SDS011;9530;48.930;9.526;2022-08-21T03:36:02;3.63;;;1.93;;
18804;SDS011;9530;48.930;9.526;2022-08-21T03:38:31;6.20;;;2.13;;
18804;SDS011;9530;48.930;9.526;2022-08-21T03:41:01;6.33;;;2.43;;
18804;SDS011;9530;48.930;9.526;2022-08-21T03:43:29;4.67;;;2.70;;
18804;SDS011;9530;48.930;9.526;2022-08-21T03:45:56;4.57;;;2.13;;
18804;SDS011;9530;48.930;9.526;2022-08-21T03:48:23;3.87;;;2.60;;
18804;SDS011;9530;48.930;9.526;2022-08-21T03:50:51;4.67;;;2.53;;
18804;SDS011;9530;48.930;9.526;2022-08-21T03:53:19;4.63;;;2.33;;
18804;SDS011;9530;48.930;9.526;2022-08-21T03:55:46;7.87;;;2.33;;
18804;SDS011;9530;48.930;9.526;2022-08-21T03:58:16;4.63;;;2.30;;
18804;SDS011;9530;48.930;9.526;2022-08-21T04:00:44;4.37;;;2.57;;
18804;SDS011;9530;48.930;9.526;2022-08-21T04:03:12;4.37;;;2.33;;
18804;SDS011;9530;48.930;9.526;2022-08-21T04:05:39;5.73;;;2.63;;
18804;SDS011;9530;48.930;9.526;2022-08-21T04:08:06;7.00;;;2.67;;
18804;SDS011;9530;48.930;9.526;2022-08-21T04:10:33;6.07;;;2.90;;
18804;SDS011;9530;48.930;9.526;2022-08-21T04:13:01;4.93;;;2.33;;
18804;SDS011;9530;48.930;9.526;2022-08-21T04:15:30;5.53;;;2.43;;
18804;SDS011;9530;48.930;9.526;2022-08-21T04:17:56;4.43;;;2.30;;
18804;SDS011;9530;48.930;9.526;2022-08-21T04:20:23;5.30;;;2.60;;
18804;SDS011;9530;48.930;9.526;2022-08-21T04:22:51;6.10;;;2.20;;
18804;SDS011;9530;48.930;9.526;2022-08-21T04:25:18;5.47;;;2.33;;
18804;SDS011;9530;48.930;9.526;2022-08-21T04:27:48;2.40;;;2.07;;
18804;SDS011;9530;48.930;9.526;2022-08-21T04:30:16;4.23;;;2.20;;
18804;SDS011;9530;48.930;9.526;2022-08-21T04:32:44;4.63;;;2.23;;
18804;SDS011;9530;48.930;9.526;2022-08-21T04:35:12;5.30;;;2.40;;
18804;SDS011;9530;48.930;9.526;2022-08-21T04:37:40;4.57;;;2.50;;
18804;SDS011;9530;48.930;9.526;2022-08-21T04:40:07;6.63;;;2.63;;
18804;SDS011;9530;48.930;9.526;2022-08-21T04:42:40;4.73;;;2.17;;
18804;SDS011;9530;48.930;9.526;2022-08-21T04:45:09;3.90;;;2.20;;
18804;SDS011;9530;48.930;9.526;2022-08-21T04:47:41;6.93;;;2.53;;
18804;SDS011;9530;48.930;9.526;2022-08-21T04:50:09;2.77;;;2.17;;
18804;SDS011;9530;48.930;9.526;2022-08-21T04:52:36;6.70;;;2.60;;
18804;SDS011;9530;48.930;9.526;2022-08-21T04:55:03;3.07;;;2.47;;
18804;SDS011;9530;48.930;9.526;2022-08-21T04:57:30;4.80;;;2.67;;
18804;SDS011;9530;48.930;9.526;2022-08-21T04:59:57;3.93;;;2.67;;
18804;SDS011;9530;48.930;9.526;2022-08-21T05:02:24;4.13;;;2.70;;
18804;SDS011;9530;48.930;9.526;2022-08-21T05:04:51;5.80;;;2.47;;
18804;SDS011;9530;48.930;9.526;2022-08-21T05:07:22;4.80;;;2.23;;
18804;SDS011;9530;48.930;9.526;2022-08-21T05:09:52;5.03;;;2.40;;
18804;SDS011;9530;48.930;9.526;2022-08-21T05:12:20;4.50;;;2.47;;
18804;SDS011;9530;48.930;9.526;2022-08-21T05:14:47;4.13;;;2.50;;
18804;SDS011;9530;48.930;9.526;2022-08-21T05:17:14;4.77;;;2.13;;
18804;SDS011;9530;48.930;9.526;2022-08-21T05:19:41;5.97;;;2.50;;
18804;SDS011;9530;48.930;9.526;2022-08-21T05:22:08;4.60;;;2.50;;
18804;SDS011;9530;48.930;9.526;2022-08-21T05:24:36;5.67;;;2.60;;
18804;SDS011;9530;48.930;9.526;2022-08-21T05:27:03;6.20;;;2.43;;
18804;SDS011;9530;48.930;9.526;2022-08-21T05:29:31;4.70;;;2.40;;
18804;SDS011;9530;48.930;9.526;2022-08-21T05:31:59;2.77;;;2.27;;
18804;SDS011;9530;48.930;9.526;2022-08-21T05:34:26;4.07;;;2.40;;
18804;SDS011;9530;48.930;9.526;2022-08-21T05:36:52;9.67;;;2.37;;
18804;SDS011;9530;48.930;9.526;2022-08-21T05:39:19;4.23;;;2.70;;
18804;SDS011;9530;48.930;9.526;2022-08-21T05:41:47;2.83;;;2.20;;
18804;SDS011;9530;48.930;9.526;2022-08-21T05:44:14;5.27;;;2.37;;
18804;SDS011;9530;48.930;9.526;2022-08-21T05:46:40;3.00;;;2.27;;
18804;SDS011;9530;48.930;9.526;2022-08-21T05:49:07;3.63;;;2.30;;
18804;SDS011;9530;48.930;9.526;2022-08-21T05:51:34;6.10;;;2.93;;
18804;SDS011;9530;48.930;9.526;2022-08-21T05:54:01;5.37;;;2.67;;
18804;SDS011;9530;48.930;9.526;2022-08-21T05:56:28;5.87;;;2.40;;
18804;SDS011;9530;48.930;9.526;2022-08-21T05:58:56;5.03;;;2.33;;
18804;SDS011;9530;48.930;9.526;2022-08-21T06:01:23;3.37;;;2.27;;
18804;SDS011;9530;48.930;9.526;2022-08-21T06:03:50;6.13;;;2.33;;
18804;SDS011;9530;48.930;9.526;2022-08-21T06:06:17;5.13;;;2.30;;
18804;SDS011;9530;48.930;9.526;2022-08-21T06:08:44;3.00;;;2.20;;
18804;SDS011;9530;48.930;9.526;2022-08-21T06:11:10;6.87;;;2.63;;
18804;SDS011;9530;48.930;9.526;2022-08-21T06:13:37;4.30;;;2.57;;
18804;SDS011;9530;48.930;9.526;2022-08-21T06:16:08;4.10;;;2.63;;
18804;SDS011;9530;48.930;9.526;2022-08-21T06:18:36;6.20;;;2.40;;
18804;SDS011;9530;48.930;9.526;2022-08-21T06:21:03;4.90;;;2.90;;
18804;SDS011;9530;48.930;9.526;2022-08-21T06:23:31;4.87;;;2.73;;
18804;SDS011;9530;48.930;9.526;2022-08-21T06:25:59;3.10;;;2.77;;
18804;SDS011;9530;48.930;9.526;2022-08-21T06:28:26;5.00;;;3.07;;
18804;SDS011;9530;48.930;9.526;2022-08-21T06:30:53;5.33;;;2.50;;
18804;SDS011;9530;48.930;9.526;2022-08-21T06:33:21;4.87;;;2.77;;
18804;SDS011;9530;48.930;9.526;2022-08-21T06:35:48;3.57;;;2.57;;
18804;SDS011;9530;48.930;9.526;2022-08-21T06:38:15;6.23;;;3.00;;
18804;SDS011;9530;48.930;9.526;2022-08-21T06:40:41;4.33;;;2.90;;
18804;SDS011;9530;48.930;9.526;2022-08-21T06:43:09;6.07;;;3.07;;
18804;SDS011;9530;48.930;9.526;2022-08-21T06:45:37;4.33;;;2.60;;
18804;SDS011;9530;48.930;9.526;2022-08-21T06:48:04;4.47;;;3.00;;
18804;SDS011;9530;48.930;9.526;2022-08-21T06:50:34;3.30;;;2.50;;
18804;SDS011;9530;48.930;9.526;2022-08-21T06:53:02;6.23;;;2.90;;
18804;SDS011;9530;48.930;9.526;2022-08-21T06:55:31;4.90;;;2.80;;
18804;SDS011;9530;48.930;9.526;2022-08-21T06:57:58;4.00;;;2.93;;
18804;SDS011;9530;48.930;9.526;2022-08-21T07:00:26;4.43;;;2.80;;
18804;SDS011;9530;48.930;9.526;2022-08-21T07:02:53;5.03;;;2.80;;
18804;SDS011;9530;48.930;9.526;2022-08-21T07:05:20;5.20;;;2.83;;
18804;SDS011;9530;48.930;9.526;2022-08-21T07:07:48;4.60;;;2.30;;
18804;SDS011;9530;48.930;9.526;2022-08-21T07:10:15;3.43;;;2.40;;
18804;SDS011;9530;48.930;9.526;2022-08-21T07:12:42;3.83;;;2.53;;
18804;SDS011;9530;48.930;9.526;2022-08-21T07:15:09;5.80;;;2.83;;
18804;SDS011;9530;48.930;9.526;2022-08-21T07:17:36;5.87;;;2.30;;
18804;SDS011;9530;48.930;9.526;2022-08-21T07:20:04;4.00;;;2.27;;
18804;SDS011;9530;48.930;9.526;2022-08-21T07:22:31;4.27;;;2.30;;
18804;SDS011;9530;48.930;9.526;2022-08-21T07:25:00;6.60;;;2.77;;
18804;SDS011;9530;48.930;9.526;2022-08-21T07:27:26;8.20;;;2.67;;
18804;SDS011;9530;48.930;9.526;2022-08-21T07:29:54;4.93;;;2.57;;
18804;SDS011;9530;48.930;9.526;2022-08-21T07:32:20;5.67;;;2.37;;
18804;SDS011;9530;48.930;9.526;2022-08-21T07:34:47;5.03;;;2.77;;
18804;SDS011;9530;48.930;9.526;2022-08-21T07:37:14;5.47;;;2.43;;
18804;SDS011;9530;48.930;9.526;2022-08-21T07:39:40;5.40;;;2.60;;
18804;SDS011;9530;48.930;9.526;2022-08-21T07:42:08;6.80;;;2.70;;
18804;SDS011;9530;48.930;9.526;2022-08-21T07:44:35;7.53;;;2.60;;
18804;SDS011;9530;48.930;9.526;2022-08-21T07:47:02;5.73;;;2.80;;
18804;SDS011;9530;48.930;9.526;2022-08-21T07:49:29;5.17;;;2.50;;
18804;SDS011;9530;48.930;9.526;2022-08-21T07:51:56;6.47;;;2.70;;
18804;SDS011;9530;48.930;9.526;2022-08-21T07:54:23;6.17;;;3.00;;
18804;SDS011;9530;48.930;9.526;2022-08-21T07:56:50;5.27;;;2.73;;
18804;SDS011;9530;48.930;9.526;2022-08-21T07:59:17;5.17;;;3.07;;
18804;SDS011;9530;48.930;9.526;2022-08-21T08:01:44;7.50;;;2.90;;
18804;SDS011;9530;48.930;9.526;2022-08-21T08:04:11;5.83;;;3.27;;
18804;SDS011;9530;48.930;9.526;2022-08-21T08:06:39;6.33;;;2.87;;
18804;SDS011;9530;48.930;9.526;2022-08-21T08:09:06;7.03;;;3.03;;
18804;SDS011;9530;48.930;9.526;2022-08-21T08:11:33;8.53;;;3.20;;
18804;SDS011;9530;48.930;9.526;2022-08-21T08:13:59;7.67;;;2.73;;
18804;SDS011;9530;48.930;9.526;2022-08-21T08:16:30;5.47;;;3.23;;
18804;SDS011;9530;48.930;9.526;2022-08-21T08:18:56;6.23;;;3.00;;
18804;SDS011;9530;48.930;9.526;2022-08-21T08:21:23;7.47;;;3.63;;
18804;SDS011;9530;48.930;9.526;2022-08-21T08:23:50;7.97;;;3.63;;
18804;SDS011;9530;48.930;9.526;2022-08-21T08:26:17;12.03;;;4.33;;
18804;SDS011;9530;48.930;9.526;2022-08-21T08:28:43;5.63;;;3.53;;
18804;SDS011;9530;48.930;9.526;2022-08-21T08:31:11;6.53;;;3.60;;
18804;SDS011;9530;48.930;9.526;2022-08-21T08:33:39;7.60;;;3.87;;
18804;SDS011;9530;48.930;9.526;2022-08-21T08:36:11;8.00;;;3.73;;
18804;SDS011;9530;48.930;9.526;2022-08-21T08:38:39;7.50;;;3.63;;
18804;SDS011;9530;48.930;9.526;2022-08-21T08:41:08;8.70;;;4.00;;
18804;SDS011;9530;48.930;9.526;2022-08-21T08:43:39;6.60;;;4.00;;
18804;SDS011;9530;48.930;9.526;2022-08-21T08:46:16;6.00;;;4.03;;
18804;SDS011;9530;48.930;9.526;2022-08-21T08:48:49;6.77;;;3.80;;
18804;SDS011;9530;48.930;9.526;2022-08-21T08:51:21;6.67;;;3.43;;
18804;SDS011;9530;48.930;9.526;2022-08-21T08:53:52;5.53;;;3.60;;
18804;SDS011;9530;48.930;9.526;2022-08-21T08:56:26;8.63;;;3.80;;
18804;SDS011;9530;48.930;9.526;2022-08-21T08:58:56;5.60;;;3.43;;
18804;SDS011;9530;48.930;9.526;2022-08-21T09:01:27;5.23;;;3.57;;
18804;SDS011;9530;48.930;9.526;2022-08-21T09:03:55;6.67;;;3.73;;
18804;SDS011;9530;48.930;9.526;2022-08-21T09:09:17;7.23;;;3.67;;
18804;SDS011;9530;48.930;9.526;2022-08-21T09:11:57;7.10;;;3.87;;
18804;SDS011;9530;48.930;9.526;2022-08-21T09:14:33;7.30;;;4.37;;
18804;SDS011;9530;48.930;9.526;2022-08-21T09:17:16;6.50;;;3.93;;
18804;SDS011;9530;48.930;9.526;2022-08-21T09:20:02;7.03;;;4.07;;
18804;SDS011;9530;48.930;9.526;2022-08-21T09:22:41;9.07;;;3.77;;
18804;SDS011;9530;48.930;9.526;2022-08-21T09:25:15;7.00;;;3.70;;
18804;SDS011;9530;48.930;9.526;2022-08-21T09:27:47;6.17;;;3.80;;
18804;SDS011;9530;48.930;9.526;2022-08-21T09:30:15;8.93;;;4.13;;
18804;SDS011;9530;48.930;9.526;2022-08-21T09:32:42;6.47;;;4.03;;
18804;SDS011;9530;48.930;9.526;2022-08-21T09:35:11;7.00;;;3.73;;
18804;SDS011;9530;48.930;9.526;2022-08-21T09:37:48;5.57;;;3.43;;
18804;SDS011;9530;48.930;9.526;2022-08-21T09:40:23;6.27;;;3.60;;
18804;SDS011;9530;48.930;9.526;2022-08-21T09:42:56;4.23;;;3.30;;
18804;SDS011;9530;48.930;9.526;2022-08-21T09:45:24;7.83;;;3.73;;
18804;SDS011;9530;48.930;9.526;2022-08-21T09:47:51;6.93;;;3.93;;
18804;SDS011;9530;48.930;9.526;2022-08-21T09:50:21;8.30;;;3.47;;
18804;SDS011;9530;48.930;9.526;2022-08-21T09:52:50;7.10;;;3.67;;
18804;SDS011;9530;48.930;9.526;2022-08-21T09:55:21;6.50;;;3.57;;
18804;SDS011;9530;48.930;9.526;2022-08-21T09:58:14;7.50;;;3.57;;
18804;SDS011;9530;48.930;9.526;2022-08-21T10:00:41;6.73;;;3.40;;
18804;SDS011;9530;48.930;9.526;2022-08-21T10:03:09;6.30;;;3.53;;
18804;SDS011;9530;48.930;9.526;2022-08-21T10:05:39;6.07;;;3.13;;
18804;SDS011;9530;48.930;9.526;2022-08-21T10:08:18;6.53;;;3.30;;
18804;SDS011;9530;48.930;9.526;2022-08-21T10:10:45;6.07;;;2.80;;
18804;SDS011;9530;48.930;9.526;2022-08-21T10:13:19;7.47;;;3.30;;
18804;SDS011;9530;48.930;9.526;2022-08-21T10:15:54;6.87;;;3.03;;
18804;SDS011;9530;48.930;9.526;2022-08-21T10:18:27;6.70;;;3.10;;
18804;SDS011;9530;48.930;9.526;2022-08-21T10:21:05;5.53;;;2.73;;
18804;SDS011;9530;48.930;9.526;2022-08-21T10:23:50;6.93;;;3.00;;
18804;SDS011;9530;48.930;9.526;2022-08-21T10:26:28;6.40;;;2.80;;
18804;SDS011;9530;48.930;9.526;2022-08-21T10:29:05;6.13;;;2.60;;
18804;SDS011;9530;48.930;9.526;2022-08-21T10:31:39;7.47;;;3.30;;
18804;SDS011;9530;48.930;9.526;2022-08-21T10:34:17;4.10;;;2.63;;
18804;SDS011;9530;48.930;9.526;2022-08-21T10:36:59;6.40;;;2.63;;
18804;SDS011;9530;48.930;9.526;2022-08-21T10:39:33;6.93;;;2.60;;
18804;SDS011;9530;48.930;9.526;2022-08-21T10:45:09;5.33;;;3.03;;
18804;SDS011;9530;48.930;9.526;2022-08-21T10:47:42;5.93;;;2.83;;
18804;SDS011;9530;48.930;9.526;2022-08-21T10:50:17;7.70;;;2.83;;
18804;SDS011;9530;48.930;9.526;2022-08-21T10:52:54;5.50;;;2.73;;
18804;SDS011;9530;48.930;9.526;2022-08-21T10:55:36;11.27;;;2.80;;
18804;SDS011;9530;48.930;9.526;2022-08-21T10:58:08;7.17;;;3.00;;
18804;SDS011;9530;48.930;9.526;2022-08-21T11:00:38;5.83;;;2.87;;
18804;SDS011;9530;48.930;9.526;2022-08-21T11:03:10;8.80;;;3.00;;
18804;SDS011;9530;48.930;9.526;2022-08-21T11:05:40;4.53;;;2.80;;
18804;SDS011;9530;48.930;9.526;2022-08-21T11:08:11;6.20;;;3.00;;
18804;SDS011;9530;48.930;9.526;2022-08-21T11:10:42;5.60;;;2.60;;
18804;SDS011;9530;48.930;9.526;2022-08-21T11:13:13;4.40;;;2.77;;
18804;SDS011;9530;48.930;9.526;2022-08-21T11:15:56;6.90;;;2.90;;
18804;SDS011;9530;48.930;9.526;2022-08-21T11:18:31;8.77;;;2.87;;
18804;SDS011;9530;48.930;9.526;2022-08-21T11:21:02;4.43;;;2.70;;
18804;SDS011;9530;48.930;9.526;2022-08-21T11:23:38;4.77;;;2.80;;
18804;SDS011;9530;48.930;9.526;2022-08-21T11:26:17;4.60;;;2.70;;
18804;SDS011;9530;48.930;9.526;2022-08-21T11:28:59;3.83;;;2.73;;
18804;SDS011;9530;48.930;9.526;2022-08-21T11:31:35;5.97;;;2.80;;
18804;SDS011;9530;48.930;9.526;2022-08-21T11:34:14;3.73;;;2.70;;
18804;SDS011;9530;48.930;9.526;2022-08-21T11:36:51;4.57;;;2.60;;
18804;SDS011;9530;48.930;9.526;2022-08-21T11:39:30;4.67;;;2.50;;
18804;SDS011;9530;48.930;9.526;2022-08-21T11:42:04;6.50;;;2.90;;
18804;SDS011;9530;48.930;9.526;2022-08-21T11:44:42;6.50;;;2.70;;
18804;SDS011;9530;48.930;9.526;2022-08-21T11:47:15;8.10;;;2.77;;
18804;SDS011;9530;48.930;9.526;2022-08-21T11:49:53;5.33;;;2.60;;
18804;SDS011;9530;48.930;9.526;2022-08-21T11:52:28;7.90;;;2.70;;
18804;SDS011;9530;48.930;9.526;2022-08-21T11:55:02;5.33;;;2.97;;
18804;SDS011;9530;48.930;9.526;2022-08-21T11:57:35;6.27;;;2.60;;
18804;SDS011;9530;48.930;9.526;2022-08-21T12:00:06;5.73;;;2.70;;
18804;SDS011;9530;48.930;9.526;2022-08-21T12:02:42;6.13;;;3.03;;
18804;SDS011;9530;48.930;9.526;2022-08-21T12:05:22;5.37;;;2.67;;
18804;SDS011;9530;48.930;9.526;2022-08-21T12:07:59;5.43;;;2.43;;
18804;SDS011;9530;48.930;9.526;2022-08-21T12:10:35;4.97;;;2.60;;
18804;SDS011;9530;48.930;9.526;2022-08-21T12:13:09;5.40;;;2.70;;
18804;SDS011;9530;48.930;9.526;2022-08-21T12:15:38;4.60;;;2.67;;
18804;SDS011;9530;48.930;9.526;2022-08-21T12:18:06;6.87;;;2.60;;
18804;SDS011;9530;48.930;9.526;2022-08-21T12:20:56;9.30;;;2.93;;
18804;SDS011;9530;48.930;9.526;2022-08-21T12:23:26;4.13;;;2.70;;
18804;SDS011;9530;48.930;9.526;2022-08-21T12:26:09;4.97;;;2.93;;
18804;SDS011;9530;48.930;9.526;2022-08-21T12:28:43;6.40;;;2.60;;
18804;SDS011;9530;48.930;9.526;2022-08-21T12:31:17;5.53;;;2.90;;
18804;SDS011;9530;48.930;9.526;2022-08-21T12:33:51;4.63;;;2.60;;
18804;SDS011;9530;48.930;9.526;2022-08-21T12:36:24;6.33;;;2.40;;
18804;SDS011;9530;48.930;9.526;2022-08-21T12:39:11;3.77;;;2.20;;
18804;SDS011;9530;48.930;9.526;2022-08-21T12:41:43;5.50;;;2.30;;
18804;SDS011;9530;48.930;9.526;2022-08-21T12:44:15;3.87;;;2.13;;
18804;SDS011;9530;48.930;9.526;2022-08-21T12:46:44;3.67;;;2.20;;
18804;SDS011;9530;48.930;9.526;2022-08-21T12:49:15;3.80;;;2.20;;
18804;SDS011;9530;48.930;9.526;2022-08-21T12:51:47;4.60;;;2.07;;
18804;SDS011;9530;48.930;9.526;2022-08-21T12:54:23;5.30;;;2.30;;
18804;SDS011;9530;48.930;9.526;2022-08-21T12:56:59;3.60;;;2.20;;
18804;SDS011;9530;48.930;9.526;2022-08-21T12:59:27;2.93;;;2.00;;
18804;SDS011;9530;48.930;9.526;2022-08-21T13:01:55;3.83;;;2.10;;
18804;SDS011;9530;48.930;9.526;2022-08-21T13:04:27;4.03;;;2.60;;
18804;SDS011;9530;48.930;9.526;2022-08-21T13:07:01;4.43;;;2.50;;
18804;SDS011;9530;48.930;9.526;2022-08-21T13:09:32;3.63;;;2.50;;
18804;SDS011;9530;48.930;9.526;2022-08-21T13:12:01;3.23;;;2.00;;
18804;SDS011;9530;48.930;9.526;2022-08-21T13:14:28;3.33;;;2.17;;
18804;SDS011;9530;48.930;9.526;2022-08-21T13:16:58;4.67;;;2.40;;
18804;SDS011;9530;48.930;9.526;2022-08-21T13:19:27;4.80;;;1.83;;
18804;SDS011;9530;48.930;9.526;2022-08-21T13:21:55;4.50;;;2.00;;
18804;SDS011;9530;48.930;9.526;2022-08-21T13:24:23;3.13;;;2.07;;
18804;SDS011;9530;48.930;9.526;2022-08-21T13:26:51;5.37;;;2.00;;
18804;SDS011;9530;48.930;9.526;2022-08-21T13:29:20;4.63;;;2.20;;
18804;SDS011;9530;48.930;9.526;2022-08-21T13:31:49;4.17;;;2.00;;
18804;SDS011;9530;48.930;9.526;2022-08-21T13:34:19;6.27;;;2.20;;
18804;SDS011;9530;48.930;9.526;2022-08-21T13:36:46;5.57;;;2.17;;
18804;SDS011;9530;48.930;9.526;2022-08-21T13:39:15;4.57;;;2.33;;
18804;SDS011;9530;48.930;9.526;2022-08-21T13:41:44;4.40;;;2.00;;
18804;SDS011;9530;48.930;9.526;2022-08-21T13:44:16;5.33;;;2.10;;
18804;SDS011;9530;48.930;9.526;2022-08-21T13:46:46;4.47;;;2.20;;
18804;SDS011;9530;48.930;9.526;2022-08-21T13:49:14;3.87;;;2.00;;
18804;SDS011;9530;48.930;9.526;2022-08-21T13:51:43;4.30;;;2.40;;
18804;SDS011;9530;48.930;9.526;2022-08-21T13:54:21;4.03;;;2.00;;
18804;SDS011;9530;48.930;9.526;2022-08-21T13:56:50;3.43;;;1.63;;
18804;SDS011;9530;48.930;9.526;2022-08-21T13:59:24;3.33;;;1.80;;
18804;SDS011;9530;48.930;9.526;2022-08-21T14:01:55;2.37;;;1.80;;
18804;SDS011;9530;48.930;9.526;2022-08-21T14:04:25;3.40;;;1.73;;
18804;SDS011;9530;48.930;9.526;2022-08-21T14:06:57;3.67;;;1.90;;
18804;SDS011;9530;48.930;9.526;2022-08-21T14:09:25;4.37;;;1.90;;
18804;SDS011;9530;48.930;9.526;2022-08-21T14:11:54;3.53;;;2.10;;
18804;SDS011;9530;48.930;9.526;2022-08-21T14:14:24;4.23;;;1.93;;
18804;SDS011;9530;48.930;9.526;2022-08-21T14:16:53;3.43;;;2.20;;
18804;SDS011;9530;48.930;9.526;2022-08-21T14:19:24;3.03;;;2.17;;
18804;SDS011;9530;48.930;9.526;2022-08-21T14:21:52;2.90;;;2.10;;
18804;SDS011;9530;48.930;9.526;2022-08-21T14:24:27;4.27;;;1.90;;
18804;SDS011;9530;48.930;9.526;2022-08-21T14:26:57;4.40;;;2.00;;
18804;SDS011;9530;48.930;9.526;2022-08-21T14:29:33;3.77;;;2.07;;
18804;SDS011;9530;48.930;9.526;2022-08-21T14:32:09;4.37;;;2.10;;
18804;SDS011;9530;48.930;9.526;2022-08-21T14:34:39;3.50;;;2.17;;
18804;SDS011;9530;48.930;9.526;2022-08-21T14:37:06;3.43;;;2.00;;
18804;SDS011;9530;48.930;9.526;2022-08-21T14:39:33;3.73;;;2.30;;
18804;SDS011;9530;48.930;9.526;2022-08-21T14:41:59;3.33;;;2.30;;
18804;SDS011;9530;48.930;9.526;2022-08-21T14:44:27;4.20;;;2.00;;
18804;SDS011;9530;48.930;9.526;2022-08-21T14:46:53;4.20;;;1.90;;
18804;SDS011;9530;48.930;9.526;2022-08-21T14:49:22;2.97;;;1.93;;
18804;SDS011;9530;48.930;9.526;2022-08-21T14:51:52;2.33;;;1.80;;
18804;SDS011;9530;48.930;9.526;2022-08-21T14:54:22;5.33;;;2.20;;
18804;SDS011;9530;48.930;9.526;2022-08-21T14:56:48;5.20;;;2.07;;
18804;SDS011;9530;48.930;9.526;2022-08-21T14:59:16;4.37;;;2.23;;
18804;SDS011;9530;48.930;9.526;2022-08-21T15:01:44;4.83;;;2.10;;
18804;SDS011;9530;48.930;9.526;2022-08-21T15:04:11;3.80;;;1.90;;
18804;SDS011;9530;48.930;9.526;2022-08-21T15:06:39;3.40;;;2.00;;
18804;SDS011;9530;48.930;9.526;2022-08-21T15:09:05;4.10;;;2.30;;
18804;SDS011;9530;48.930;9.526;2022-08-21T15:11:32;2.20;;;1.80;;
18804;SDS011;9530;48.930;9.526;2022-08-21T15:14:00;3.20;;;1.83;;
18804;SDS011;9530;48.930;9.526;2022-08-21T15:16:29;4.03;;;1.93;;
18804;SDS011;9530;48.930;9.526;2022-08-21T15:18:56;6.17;;;2.20;;
18804;SDS011;9530;48.930;9.526;2022-08-21T15:21:24;4.47;;;2.10;;